sensor_id;sensor_type;location;lat;lon;timestamp;pressure;altitude;pressure_sealevel;temperature;humidity
31331;BME280;34067;39.548;-76.088;2023-04-20T00:01:59;101740.66;;;21.88;27.32
31331;BME280;34067;39.548;-76.088;2023-04-20T00:04:27;101742.28;;;21.47;26.43
31331;BME280;34067;39.548;-76.088;2023-04-20T00:06:55;101743.64;;;21.02;28.54
31331;BME280;34067;39.548;-76.088;2023-04-20T00:09:23;101749.07;;;21.17;29.89
31331;BME280;34067;39.548;-76.088;2023-04-20T00:11:51;101746.55;;;21.18;25.10
31331;BME280;34067;39.548;-76.088;2023-04-20T00:14:19;101747.43;;;20.69;23.58
31331;BME280;34067;39.548;-76.088;2023-04-20T00:16:47;101748.59;;;20.65;23.39
31331;BME280;34067;39.548;-76.088;2023-04-20T00:19:15;101755.10;;;20.20;24.14
31331;BME280;34067;39.548;-76.088;2023-04-20T00:21:43;101761.64;;;20.15;26.13
31331;BME280;34067;39.548;-76.088;2023-04-20T00:24:11;101766.11;;;19.95;26.73
31331;BME280;34067;39.548;-76.088;2023-04-20T00:26:39;101772.81;;;20.47;27.78
31331;BME280;34067;39.548;-76.088;2023-04-20T00:29:07;101776.52;;;19.35;27.45
31331;BME280;34067;39.548;-76.088;2023-04-20T00:31:35;101777.50;;;19.95;27.68
31331;BME280;34067;39.548;-76.088;2023-04-20T00:34:03;101779.40;;;19.62;28.11
31331;BME280;34067;39.548;-76.088;2023-04-20T00:36:31;101784.03;;;19.72;26.87
31331;BME280;34067;39.548;-76.088;2023-04-20T00:38:59;101789.99;;;20.14;26.54
31331;BME280;34067;39.548;-76.088;2023-04-20T00:41:27;101793.80;;;18.93;26.64
31331;BME280;34067;39.548;-76.088;2023-04-20T00:43:55;101796.48;;;19.24;26.72
31331;BME280;34067;39.548;-76.088;2023-04-20T00:46:23;101800.03;;;19.33;26.67
31331;BME280;34067;39.548;-76.088;2023-04-20T00:48:53;101803.99;;;19.28;27.45
31331;BME280;34067;39.548;-76.088;2023-04-20T00:51:22;101809.16;;;19.17;27.88
31331;BME280;34067;39.548;-76.088;2023-04-20T00:53:49;101813.41;;;19.06;28.08
31331;BME280;34067;39.548;-76.088;2023-04-20T00:56:17;101812.59;;;19.14;28.10
31331;BME280;34067;39.548;-76.088;2023-04-20T00:58:46;101813.99;;;19.52;27.44
31331;BME280;34067;39.548;-76.088;2023-04-20T01:01:14;101816.75;;;18.72;28.11
31331;BME280;34067;39.548;-76.088;2023-04-20T01:03:42;101820.53;;;18.49;29.39
31331;BME280;34067;39.548;-76.088;2023-04-20T01:06:12;101823.91;;;18.91;29.29
31331;BME280;34067;39.548;-76.088;2023-04-20T01:08:46;101829.15;;;18.84;28.57
31331;BME280;34067;39.548;-76.088;2023-04-20T01:11:14;101832.69;;;18.32;28.10
31331;BME280;34067;39.548;-76.088;2023-04-20T01:13:42;101839.38;;;18.54;27.70
31331;BME280;34067;39.548;-76.088;2023-04-20T01:16:10;101846.42;;;18.51;27.66
31331;BME280;34067;39.548;-76.088;2023-04-20T01:18:41;101855.60;;;18.08;27.89
31331;BME280;34067;39.548;-76.088;2023-04-20T01:21:10;101861.02;;;18.53;28.07
31331;BME280;34067;39.548;-76.088;2023-04-20T01:23:38;101864.85;;;18.28;28.94
31331;BME280;34067;39.548;-76.088;2023-04-20T01:26:07;101866.60;;;18.65;29.17
31331;BME280;34067;39.548;-76.088;2023-04-20T01:28:36;101863.50;;;17.77;29.08
31331;BME280;34067;39.548;-76.088;2023-04-20T01:31:05;101865.19;;;17.86;28.83
31331;BME280;34067;39.548;-76.088;2023-04-20T01:33:34;101870.55;;;17.41;29.57
31331;BME280;34067;39.548;-76.088;2023-04-20T01:36:02;101873.26;;;18.18;29.90
31331;BME280;34067;39.548;-76.088;2023-04-20T01:38:30;101873.93;;;17.90;30.13
31331;BME280;34067;39.548;-76.088;2023-04-20T01:40:59;101875.56;;;18.31;30.71
31331;BME280;34067;39.548;-76.088;2023-04-20T01:43:26;101876.40;;;18.26;31.10
31331;BME280;34067;39.548;-76.088;2023-04-20T01:45:54;101879.25;;;17.85;33.25
31331;BME280;34067;39.548;-76.088;2023-04-20T01:48:23;101888.82;;;17.36;35.78
31331;BME280;34067;39.548;-76.088;2023-04-20T01:50:51;101894.42;;;17.75;37.57
31331;BME280;34067;39.548;-76.088;2023-04-20T01:53:19;101899.02;;;17.43;41.70
31331;BME280;34067;39.548;-76.088;2023-04-20T01:55:47;101905.17;;;17.85;41.59
31331;BME280;34067;39.548;-76.088;2023-04-20T01:58:16;101906.81;;;17.09;41.51
31331;BME280;34067;39.548;-76.088;2023-04-20T02:00:44;101907.95;;;17.29;42.20
31331;BME280;34067;39.548;-76.088;2023-04-20T02:03:12;101903.22;;;17.38;41.01
31331;BME280;34067;39.548;-76.088;2023-04-20T02:05:40;101903.06;;;16.44;41.40
31331;BME280;34067;39.548;-76.088;2023-04-20T02:08:08;101904.74;;;16.86;39.40
31331;BME280;34067;39.548;-76.088;2023-04-20T02:10:36;101904.04;;;17.45;36.46
31331;BME280;34067;39.548;-76.088;2023-04-20T02:13:04;101897.49;;;17.45;38.00
31331;BME280;34067;39.548;-76.088;2023-04-20T02:15:32;101894.71;;;17.18;37.55
31331;BME280;34067;39.548;-76.088;2023-04-20T02:18:01;101894.36;;;16.73;40.04
31331;BME280;34067;39.548;-76.088;2023-04-20T02:20:29;101895.16;;;17.16;40.80
31331;BME280;34067;39.548;-76.088;2023-04-20T02:22:57;101897.57;;;17.64;40.07
31331;BME280;34067;39.548;-76.088;2023-04-20T02:25:25;101906.38;;;16.99;44.75
31331;BME280;34067;39.548;-76.088;2023-04-20T02:27:54;101909.34;;;17.15;43.69
31331;BME280;34067;39.548;-76.088;2023-04-20T02:30:22;101906.99;;;16.71;43.56
31331;BME280;34067;39.548;-76.088;2023-04-20T02:32:50;101904.02;;;16.63;43.42
31331;BME280;34067;39.548;-76.088;2023-04-20T02:35:18;101906.48;;;16.99;42.14
31331;BME280;34067;39.548;-76.088;2023-04-20T02:37:46;101905.73;;;16.77;40.11
31331;BME280;34067;39.548;-76.088;2023-04-20T02:40:14;101907.41;;;17.00;39.94
31331;BME280;34067;39.548;-76.088;2023-04-20T02:42:42;101909.70;;;16.90;40.22
31331;BME280;34067;39.548;-76.088;2023-04-20T02:45:11;101908.09;;;16.98;39.68
31331;BME280;34067;39.548;-76.088;2023-04-20T02:47:38;101904.49;;;16.55;40.31
31331;BME280;34067;39.548;-76.088;2023-04-20T02:50:07;101903.27;;;16.45;41.32
31331;BME280;34067;39.548;-76.088;2023-04-20T02:52:35;101903.71;;;15.98;43.11
31331;BME280;34067;39.548;-76.088;2023-04-20T02:55:04;101902.80;;;16.46;43.02
31331;BME280;34067;39.548;-76.088;2023-04-20T02:57:31;101905.98;;;16.24;43.30
31331;BME280;34067;39.548;-76.088;2023-04-20T02:59:59;101907.33;;;16.70;43.52
31331;BME280;34067;39.548;-76.088;2023-04-20T03:02:28;101909.33;;;16.22;44.47
31331;BME280;34067;39.548;-76.088;2023-04-20T03:04:56;101906.97;;;16.32;45.32
31331;BME280;34067;39.548;-76.088;2023-04-20T03:07:24;101908.68;;;15.69;45.27
31331;BME280;34067;39.548;-76.088;2023-04-20T03:09:52;101908.43;;;16.53;44.81
31331;BME280;34067;39.548;-76.088;2023-04-20T03:12:19;101909.11;;;15.75;44.67
31331;BME280;34067;39.548;-76.088;2023-04-20T03:14:47;101913.85;;;16.57;44.33
31331;BME280;34067;39.548;-76.088;2023-04-20T03:17:15;101919.25;;;15.70;45.84
31331;BME280;34067;39.548;-76.088;2023-04-20T03:19:43;101921.90;;;16.51;45.13
31331;BME280;34067;39.548;-76.088;2023-04-20T03:22:11;101924.41;;;16.64;45.26
31331;BME280;34067;39.548;-76.088;2023-04-20T03:24:39;101925.28;;;16.18;45.97
31331;BME280;34067;39.548;-76.088;2023-04-20T03:27:07;101931.22;;;15.72;47.00
31331;BME280;34067;39.548;-76.088;2023-04-20T03:29:35;101931.55;;;15.30;47.65
31331;BME280;34067;39.548;-76.088;2023-04-20T03:32:04;101937.61;;;15.08;48.40
31331;BME280;34067;39.548;-76.088;2023-04-20T03:34:32;101936.63;;;15.51;47.83
31331;BME280;34067;39.548;-76.088;2023-04-20T03:37:00;101931.82;;;15.09;48.60
31331;BME280;34067;39.548;-76.088;2023-04-20T03:39:28;101930.56;;;15.15;48.20
31331;BME280;34067;39.548;-76.088;2023-04-20T03:41:56;101932.18;;;15.94;47.22
31331;BME280;34067;39.548;-76.088;2023-04-20T03:44:24;101937.75;;;15.44;47.26
31331;BME280;34067;39.548;-76.088;2023-04-20T03:46:52;101944.89;;;14.10;51.27
31331;BME280;34067;39.548;-76.088;2023-04-20T03:49:23;101954.67;;;13.20;56.17
31331;BME280;34067;39.548;-76.088;2023-04-20T03:51:51;101953.29;;;14.22;54.18
31331;BME280;34067;39.548;-76.088;2023-04-20T03:54:19;101958.65;;;13.79;53.20
31331;BME280;34067;39.548;-76.088;2023-04-20T03:56:47;101959.63;;;14.23;52.23
31331;BME280;34067;39.548;-76.088;2023-04-20T03:59:15;101965.02;;;14.74;51.13
31331;BME280;34067;39.548;-76.088;2023-04-20T04:01:43;101972.89;;;14.16;52.52
31331;BME280;34067;39.548;-76.088;2023-04-20T04:04:11;101979.83;;;12.98;55.76
31331;BME280;34067;39.548;-76.088;2023-04-20T04:06:39;101989.25;;;14.62;53.40
31331;BME280;34067;39.548;-76.088;2023-04-20T04:09:07;101992.21;;;14.49;54.59
31331;BME280;34067;39.548;-76.088;2023-04-20T04:11:36;101996.43;;;13.75;55.12
31331;BME280;34067;39.548;-76.088;2023-04-20T04:14:04;101999.86;;;14.64;54.17
31331;BME280;34067;39.548;-76.088;2023-04-20T04:16:32;102009.77;;;13.32;56.09
31331;BME280;34067;39.548;-76.088;2023-04-20T04:19:00;102004.96;;;14.34;54.99
31331;BME280;34067;39.548;-76.088;2023-04-20T04:21:29;102015.11;;;12.26;55.82
31331;BME280;34067;39.548;-76.088;2023-04-20T04:23:57;102019.95;;;12.91;55.51
31331;BME280;34067;39.548;-76.088;2023-04-20T04:26:25;102021.02;;;12.63;58.36
31331;BME280;34067;39.548;-76.088;2023-04-20T04:28:53;102019.09;;;12.50;61.56
31331;BME280;34067;39.548;-76.088;2023-04-20T04:31:21;102020.87;;;12.07;60.27
31331;BME280;34067;39.548;-76.088;2023-04-20T04:33:49;102022.59;;;12.16;62.60
31331;BME280;34067;39.548;-76.088;2023-04-20T04:36:17;102020.15;;;10.81;65.07
31331;BME280;34067;39.548;-76.088;2023-04-20T04:38:46;102020.54;;;10.27;66.88
31331;BME280;34067;39.548;-76.088;2023-04-20T04:41:14;102019.79;;;11.22;69.49
31331;BME280;34067;39.548;-76.088;2023-04-20T04:43:42;102019.54;;;12.49;69.15
31331;BME280;34067;39.548;-76.088;2023-04-20T04:46:10;102019.99;;;11.60;72.79
31331;BME280;34067;39.548;-76.088;2023-04-20T04:48:39;102019.44;;;11.64;76.02
31331;BME280;34067;39.548;-76.088;2023-04-20T04:51:07;102010.88;;;11.19;74.82
31331;BME280;34067;39.548;-76.088;2023-04-20T04:53:35;102005.05;;;10.54;74.98
31331;BME280;34067;39.548;-76.088;2023-04-20T04:56:04;102001.31;;;11.38;76.33
31331;BME280;34067;39.548;-76.088;2023-04-20T04:58:33;102001.79;;;11.46;71.51
31331;BME280;34067;39.548;-76.088;2023-04-20T05:03:15;102001.34;;;11.21;66.20
31331;BME280;34067;39.548;-76.088;2023-04-20T05:05:43;102003.65;;;12.04;62.54
31331;BME280;34067;39.548;-76.088;2023-04-20T05:08:12;102009.01;;;12.98;58.56
31331;BME280;34067;39.548;-76.088;2023-04-20T05:10:40;102008.37;;;13.40;56.93
31331;BME280;34067;39.548;-76.088;2023-04-20T05:13:08;101998.60;;;13.70;56.80
31331;BME280;34067;39.548;-76.088;2023-04-20T05:15:36;101991.49;;;13.93;57.51
31331;BME280;34067;39.548;-76.088;2023-04-20T05:18:04;101991.69;;;12.96;61.71
31331;BME280;34067;39.548;-76.088;2023-04-20T05:20:32;101989.58;;;13.21;61.92
31331;BME280;34067;39.548;-76.088;2023-04-20T05:23:00;101987.21;;;12.73;62.09
31331;BME280;34067;39.548;-76.088;2023-04-20T05:25:29;101981.73;;;13.85;59.45
31331;BME280;34067;39.548;-76.088;2023-04-20T05:27:57;101981.02;;;14.18;61.40
31331;BME280;34067;39.548;-76.088;2023-04-20T05:30:25;101990.78;;;13.29;61.68
31331;BME280;34067;39.548;-76.088;2023-04-20T05:32:53;101991.59;;;13.79;62.37
31331;BME280;34067;39.548;-76.088;2023-04-20T05:35:22;101996.36;;;14.03;59.68
31331;BME280;34067;39.548;-76.088;2023-04-20T05:37:50;101995.36;;;14.31;57.77
31331;BME280;34067;39.548;-76.088;2023-04-20T05:40:18;102004.80;;;14.10;56.34
31331;BME280;34067;39.548;-76.088;2023-04-20T05:42:46;102006.93;;;14.27;58.42
31331;BME280;34067;39.548;-76.088;2023-04-20T05:45:15;102008.06;;;14.62;54.21
31331;BME280;34067;39.548;-76.088;2023-04-20T05:47:51;102006.84;;;14.77;52.94
31331;BME280;34067;39.548;-76.088;2023-04-20T05:50:19;102001.79;;;14.43;53.87
31331;BME280;34067;39.548;-76.088;2023-04-20T05:52:47;101989.23;;;15.10;56.94
31331;BME280;34067;39.548;-76.088;2023-04-20T05:55:15;101994.79;;;13.55;60.49
31331;BME280;34067;39.548;-76.088;2023-04-20T05:57:43;101999.23;;;13.78;59.98
31331;BME280;34067;39.548;-76.088;2023-04-20T06:00:14;101997.39;;;14.35;58.05
31331;BME280;34067;39.548;-76.088;2023-04-20T06:02:42;102003.30;;;14.01;59.88
31331;BME280;34067;39.548;-76.088;2023-04-20T06:05:10;102010.79;;;13.85;65.40
31331;BME280;34067;39.548;-76.088;2023-04-20T06:07:38;102008.23;;;13.74;64.44
31331;BME280;34067;39.548;-76.088;2023-04-20T06:10:07;101998.25;;;13.40;62.71
31331;BME280;34067;39.548;-76.088;2023-04-20T06:12:35;101986.59;;;13.61;60.61
31331;BME280;34067;39.548;-76.088;2023-04-20T06:15:04;101984.21;;;13.95;58.96
31331;BME280;34067;39.548;-76.088;2023-04-20T06:17:34;101997.63;;;13.70;58.88
31331;BME280;34067;39.548;-76.088;2023-04-20T06:20:02;101994.21;;;14.04;58.67
31331;BME280;34067;39.548;-76.088;2023-04-20T06:22:30;101997.83;;;13.35;60.94
31331;BME280;34067;39.548;-76.088;2023-04-20T06:24:59;101993.40;;;13.13;62.98
31331;BME280;34067;39.548;-76.088;2023-04-20T06:27:27;101995.49;;;13.23;62.34
31331;BME280;34067;39.548;-76.088;2023-04-20T06:29:55;101987.09;;;13.26;61.00
31331;BME280;34067;39.548;-76.088;2023-04-20T06:32:23;101988.93;;;13.48;60.92
31331;BME280;34067;39.548;-76.088;2023-04-20T06:34:51;101995.31;;;13.75;61.75
31331;BME280;34067;39.548;-76.088;2023-04-20T06:37:19;101996.00;;;13.62;62.34
31331;BME280;34067;39.548;-76.088;2023-04-20T06:39:47;101993.97;;;13.27;62.46
31331;BME280;34067;39.548;-76.088;2023-04-20T06:42:20;101995.53;;;12.56;64.62
31331;BME280;34067;39.548;-76.088;2023-04-20T06:44:48;101995.34;;;13.07;63.48
31331;BME280;34067;39.548;-76.088;2023-04-20T06:47:16;101989.08;;;13.33;61.95
31331;BME280;34067;39.548;-76.088;2023-04-20T06:49:44;101986.02;;;13.54;61.82
31331;BME280;34067;39.548;-76.088;2023-04-20T06:52:12;101987.19;;;12.14;64.33
31331;BME280;34067;39.548;-76.088;2023-04-20T06:54:41;101988.10;;;12.43;64.56
31331;BME280;34067;39.548;-76.088;2023-04-20T06:57:09;101985.35;;;12.65;64.01
31331;BME280;34067;39.548;-76.088;2023-04-20T06:59:37;101984.22;;;13.26;64.69
31331;BME280;34067;39.548;-76.088;2023-04-20T07:02:06;101986.36;;;13.52;63.93
31331;BME280;34067;39.548;-76.088;2023-04-20T07:04:33;101984.38;;;13.69;63.04
31331;BME280;34067;39.548;-76.088;2023-04-20T07:07:01;101983.05;;;13.27;64.62
31331;BME280;34067;39.548;-76.088;2023-04-20T07:09:30;101982.42;;;12.68;69.89
31331;BME280;34067;39.548;-76.088;2023-04-20T07:11:58;101984.80;;;11.56;76.93
31331;BME280;34067;39.548;-76.088;2023-04-20T07:14:26;101989.55;;;11.27;79.00
31331;BME280;34067;39.548;-76.088;2023-04-20T07:16:54;101988.75;;;10.57;79.40
31331;BME280;34067;39.548;-76.088;2023-04-20T07:19:22;101987.66;;;9.97;81.40
31331;BME280;34067;39.548;-76.088;2023-04-20T07:21:50;101982.68;;;10.77;80.82
31331;BME280;34067;39.548;-76.088;2023-04-20T07:24:18;101978.61;;;10.21;80.72
31331;BME280;34067;39.548;-76.088;2023-04-20T07:26:47;101967.86;;;11.27;78.83
31331;BME280;34067;39.548;-76.088;2023-04-20T07:29:15;101958.90;;;12.12;76.08
31331;BME280;34067;39.548;-76.088;2023-04-20T07:31:43;101957.13;;;11.84;74.85
31331;BME280;34067;39.548;-76.088;2023-04-20T07:34:11;101966.44;;;12.52;71.47
31331;BME280;34067;39.548;-76.088;2023-04-20T07:36:39;101974.31;;;12.25;75.48
31331;BME280;34067;39.548;-76.088;2023-04-20T07:39:07;101981.71;;;11.51;78.99
31331;BME280;34067;39.548;-76.088;2023-04-20T07:41:35;101979.14;;;11.52;77.95
31331;BME280;34067;39.548;-76.088;2023-04-20T07:44:03;101984.47;;;10.08;82.42
31331;BME280;34067;39.548;-76.088;2023-04-20T07:46:31;101985.52;;;11.36;81.54
31331;BME280;34067;39.548;-76.088;2023-04-20T07:48:59;101987.27;;;10.37;85.69
31331;BME280;34067;39.548;-76.088;2023-04-20T07:51:26;101989.06;;;10.68;82.24
31331;BME280;34067;39.548;-76.088;2023-04-20T07:53:54;101992.38;;;11.36;83.54
31331;BME280;34067;39.548;-76.088;2023-04-20T07:56:23;101989.58;;;10.25;84.09
31331;BME280;34067;39.548;-76.088;2023-04-20T07:58:51;101986.94;;;10.92;80.70
31331;BME280;34067;39.548;-76.088;2023-04-20T08:01:23;101975.13;;;12.01;74.35
31331;BME280;34067;39.548;-76.088;2023-04-20T08:03:51;101980.07;;;12.19;69.33
31331;BME280;34067;39.548;-76.088;2023-04-20T08:06:20;101989.51;;;11.17;75.76
31331;BME280;34067;39.548;-76.088;2023-04-20T08:08:48;101987.88;;;10.83;78.37
31331;BME280;34067;39.548;-76.088;2023-04-20T08:11:16;101996.11;;;11.98;76.58
31331;BME280;34067;39.548;-76.088;2023-04-20T08:13:44;101993.39;;;13.03;72.85
31331;BME280;34067;39.548;-76.088;2023-04-20T08:16:12;101991.51;;;13.22;73.37
31331;BME280;34067;39.548;-76.088;2023-04-20T08:18:40;101990.53;;;11.89;72.26
31331;BME280;34067;39.548;-76.088;2023-04-20T08:21:08;101997.95;;;11.03;75.43
31331;BME280;34067;39.548;-76.088;2023-04-20T08:23:35;102001.74;;;11.36;80.73
31331;BME280;34067;39.548;-76.088;2023-04-20T08:26:04;102004.63;;;10.21;84.45
31331;BME280;34067;39.548;-76.088;2023-04-20T08:28:31;102001.76;;;9.91;87.55
31331;BME280;34067;39.548;-76.088;2023-04-20T08:31:00;101998.41;;;9.93;88.09
31331;BME280;34067;39.548;-76.088;2023-04-20T08:33:28;102003.75;;;9.90;88.64
31331;BME280;34067;39.548;-76.088;2023-04-20T08:35:56;101996.71;;;9.72;87.51
31331;BME280;34067;39.548;-76.088;2023-04-20T08:38:24;102002.70;;;10.62;87.28
31331;BME280;34067;39.548;-76.088;2023-04-20T08:40:52;102011.00;;;8.47;94.64
31331;BME280;34067;39.548;-76.088;2023-04-20T08:43:20;102016.43;;;9.32;96.21
31331;BME280;34067;39.548;-76.088;2023-04-20T08:45:49;102015.92;;;9.40;100.00
31331;BME280;34067;39.548;-76.088;2023-04-20T08:48:19;102014.57;;;8.75;100.00
31331;BME280;34067;39.548;-76.088;2023-04-20T08:50:48;102016.53;;;8.43;100.00
31331;BME280;34067;39.548;-76.088;2023-04-20T08:53:16;102011.65;;;9.20;100.00
31331;BME280;34067;39.548;-76.088;2023-04-20T08:55:44;102006.41;;;9.82;96.61
31331;BME280;34067;39.548;-76.088;2023-04-20T08:58:13;102006.06;;;9.24;97.41
31331;BME280;34067;39.548;-76.088;2023-04-20T09:00:46;102006.89;;;9.85;91.04
31331;BME280;34067;39.548;-76.088;2023-04-20T09:03:14;102014.45;;;9.15;95.20
31331;BME280;34067;39.548;-76.088;2023-04-20T09:05:43;102006.05;;;10.34;91.32
31331;BME280;34067;39.548;-76.088;2023-04-20T09:08:11;102005.91;;;9.53;93.57
31331;BME280;34067;39.548;-76.088;2023-04-20T09:10:41;102002.65;;;11.20;87.18
31331;BME280;34067;39.548;-76.088;2023-04-20T09:13:19;102001.29;;;10.22;85.02
31331;BME280;34067;39.548;-76.088;2023-04-20T09:15:48;101998.78;;;10.28;85.40
31331;BME280;34067;39.548;-76.088;2023-04-20T09:18:16;102006.72;;;9.95;85.54
31331;BME280;34067;39.548;-76.088;2023-04-20T09:20:43;102014.76;;;10.24;84.34
31331;BME280;34067;39.548;-76.088;2023-04-20T09:23:12;102013.53;;;9.72;85.56
31331;BME280;34067;39.548;-76.088;2023-04-20T09:25:42;102015.76;;;9.87;87.76
31331;BME280;34067;39.548;-76.088;2023-04-20T09:28:12;102016.52;;;9.41;91.70
31331;BME280;34067;39.548;-76.088;2023-04-20T09:30:41;102012.35;;;9.75;88.67
31331;BME280;34067;39.548;-76.088;2023-04-20T09:33:10;102009.20;;;9.86;88.42
31331;BME280;34067;39.548;-76.088;2023-04-20T09:35:38;102010.46;;;9.46;88.29
31331;BME280;34067;39.548;-76.088;2023-04-20T09:38:06;102007.95;;;11.15;84.36
31331;BME280;34067;39.548;-76.088;2023-04-20T09:40:35;102010.52;;;10.69;85.09
31331;BME280;34067;39.548;-76.088;2023-04-20T09:43:16;102013.75;;;9.34;84.80
31331;BME280;34067;39.548;-76.088;2023-04-20T09:45:45;102012.63;;;10.66;81.51
31331;BME280;34067;39.548;-76.088;2023-04-20T09:48:12;102013.97;;;9.38;80.68
31331;BME280;34067;39.548;-76.088;2023-04-20T09:50:41;102008.46;;;10.79;77.46
31331;BME280;34067;39.548;-76.088;2023-04-20T09:53:10;102001.05;;;11.82;74.30
31331;BME280;34067;39.548;-76.088;2023-04-20T09:55:41;101998.13;;;10.86;74.18
31331;BME280;34067;39.548;-76.088;2023-04-20T09:58:09;102002.33;;;10.89;69.12
31331;BME280;34067;39.548;-76.088;2023-04-20T10:00:38;102001.93;;;11.08;66.52
31331;BME280;34067;39.548;-76.088;2023-04-20T10:03:05;102007.46;;;11.05;66.10
31331;BME280;34067;39.548;-76.088;2023-04-20T10:05:34;102011.41;;;9.81;66.41
31331;BME280;34067;39.548;-76.088;2023-04-20T10:08:02;102010.44;;;10.49;68.18
31331;BME280;34067;39.548;-76.088;2023-04-20T10:10:30;102014.20;;;11.25;63.43
31331;BME280;34067;39.548;-76.088;2023-04-20T10:12:59;102017.86;;;11.38;61.74
31331;BME280;34067;39.548;-76.088;2023-04-20T10:15:37;102017.81;;;11.11;62.37
31331;BME280;34067;39.548;-76.088;2023-04-20T10:18:22;102013.71;;;11.85;61.18
31331;BME280;34067;39.548;-76.088;2023-04-20T10:20:51;102009.70;;;11.66;60.07
31331;BME280;34067;39.548;-76.088;2023-04-20T10:23:31;102008.19;;;12.15;61.68
31331;BME280;34067;39.548;-76.088;2023-04-20T10:25:59;102020.02;;;12.45;58.04
31331;BME280;34067;39.548;-76.088;2023-04-20T10:28:38;102032.53;;;12.99;54.92
31331;BME280;34067;39.548;-76.088;2023-04-20T10:31:07;102036.26;;;13.18;52.89
31331;BME280;34067;39.548;-76.088;2023-04-20T10:33:35;102041.66;;;13.06;52.48
31331;BME280;34067;39.548;-76.088;2023-04-20T10:36:03;102051.70;;;12.75;52.36
31331;BME280;34067;39.548;-76.088;2023-04-20T10:38:33;102059.93;;;13.42;52.42
31331;BME280;34067;39.548;-76.088;2023-04-20T10:41:08;102068.36;;;13.15;54.15
31331;BME280;34067;39.548;-76.088;2023-04-20T10:43:36;102070.95;;;12.76;53.78
31331;BME280;34067;39.548;-76.088;2023-04-20T10:46:13;102074.51;;;13.07;54.75
31331;BME280;34067;39.548;-76.088;2023-04-20T10:48:50;102080.32;;;13.32;55.07
31331;BME280;34067;39.548;-76.088;2023-04-20T10:51:18;102083.75;;;12.64;54.22
31331;BME280;34067;39.548;-76.088;2023-04-20T10:53:46;102090.61;;;12.85;55.07
31331;BME280;34067;39.548;-76.088;2023-04-20T10:56:23;102094.41;;;13.27;53.17
31331;BME280;34067;39.548;-76.088;2023-04-20T10:58:52;102106.34;;;11.48;57.05
31331;BME280;34067;39.548;-76.088;2023-04-20T11:01:20;102100.07;;;12.14;53.73
31331;BME280;34067;39.548;-76.088;2023-04-20T11:03:50;102097.70;;;11.50;51.95
31331;BME280;34067;39.548;-76.088;2023-04-20T11:06:18;102097.75;;;11.27;55.26
31331;BME280;34067;39.548;-76.088;2023-04-20T11:08:46;102100.75;;;12.23;54.35
31331;BME280;34067;39.548;-76.088;2023-04-20T11:11:19;102101.96;;;12.18;54.66
31331;BME280;34067;39.548;-76.088;2023-04-20T11:13:47;102096.71;;;12.26;54.85
31331;BME280;34067;39.548;-76.088;2023-04-20T11:16:16;102096.31;;;11.86;52.38
31331;BME280;34067;39.548;-76.088;2023-04-20T11:18:52;102102.46;;;12.41;50.30
31331;BME280;34067;39.548;-76.088;2023-04-20T11:21:21;102104.99;;;11.74;52.09
31331;BME280;34067;39.548;-76.088;2023-04-20T11:23:49;102102.17;;;12.72;49.40
31331;BME280;34067;39.548;-76.088;2023-04-20T11:26:17;102101.13;;;12.94;50.08
31331;BME280;34067;39.548;-76.088;2023-04-20T11:28:53;102100.70;;;12.90;49.23
31331;BME280;34067;39.548;-76.088;2023-04-20T11:31:21;102106.58;;;13.54;47.92
31331;BME280;34067;39.548;-76.088;2023-04-20T11:33:49;102107.21;;;12.92;50.08
31331;BME280;34067;39.548;-76.088;2023-04-20T11:36:19;102113.20;;;10.65;49.20
31331;BME280;34067;39.548;-76.088;2023-04-20T11:38:47;102106.23;;;12.86;48.94
31331;BME280;34067;39.548;-76.088;2023-04-20T11:41:16;102108.46;;;12.62;48.33
31331;BME280;34067;39.548;-76.088;2023-04-20T11:43:44;102104.46;;;13.26;52.33
31331;BME280;34067;39.548;-76.088;2023-04-20T11:46:14;102110.16;;;12.66;48.76
31331;BME280;34067;39.548;-76.088;2023-04-20T11:48:42;102109.10;;;12.20;48.94
31331;BME280;34067;39.548;-76.088;2023-04-20T11:51:10;102111.65;;;12.65;49.90
31331;BME280;34067;39.548;-76.088;2023-04-20T11:53:38;102110.69;;;12.38;50.36
31331;BME280;34067;39.548;-76.088;2023-04-20T11:56:06;102106.42;;;12.31;49.54
31331;BME280;34067;39.548;-76.088;2023-04-20T11:58:35;102111.29;;;13.16;47.39
31331;BME280;34067;39.548;-76.088;2023-04-20T12:01:03;102109.85;;;12.67;47.11
31331;BME280;34067;39.548;-76.088;2023-04-20T12:03:31;102105.83;;;13.15;48.12
31331;BME280;34067;39.548;-76.088;2023-04-20T12:05:59;102102.66;;;13.60;47.56
31331;BME280;34067;39.548;-76.088;2023-04-20T12:08:27;102106.63;;;14.26;46.85
31331;BME280;34067;39.548;-76.088;2023-04-20T12:10:55;102109.13;;;13.73;46.61
31331;BME280;34067;39.548;-76.088;2023-04-20T12:13:23;102115.67;;;13.43;46.61
31331;BME280;34067;39.548;-76.088;2023-04-20T12:15:51;102120.04;;;13.95;48.21
31331;BME280;34067;39.548;-76.088;2023-04-20T12:18:19;102111.54;;;13.73;47.39
31331;BME280;34067;39.548;-76.088;2023-04-20T12:20:48;102105.90;;;13.84;45.61
31331;BME280;34067;39.548;-76.088;2023-04-20T12:23:15;102103.72;;;13.96;46.66
31331;BME280;34067;39.548;-76.088;2023-04-20T12:25:43;102112.17;;;14.24;47.28
31331;BME280;34067;39.548;-76.088;2023-04-20T12:28:11;102121.17;;;14.26;44.40
31331;BME280;34067;39.548;-76.088;2023-04-20T12:30:39;102127.37;;;15.06;44.80
31331;BME280;34067;39.548;-76.088;2023-04-20T12:33:07;102131.79;;;15.02;44.25
31331;BME280;34067;39.548;-76.088;2023-04-20T12:35:36;102137.05;;;15.29;43.47
31331;BME280;34067;39.548;-76.088;2023-04-20T12:38:04;102138.67;;;15.02;42.82
31331;BME280;34067;39.548;-76.088;2023-04-20T12:40:32;102134.20;;;15.34;43.56